Cave City, Kentucky
Current Conditions -  °F | °C
As of 10:35 PM on Saturday 25 Oct 2014 (Local Time) from KGLW Reporting Station
Moderate Fog Moderate Fog  
Wind Chill: 55°   Ceiling: 300
Heat Index: 55°   Visibility: 0.25mi
Dew Point: 55°   Wind: 0mph
Humidity: 100%   Direction: NA
Pressure: 30.01"   Gusts: NA
Location:  37.14°N, 85.96°W
Report Text: KGLW 260335Z AUTO 00000KT 1/4SM FG OVC003 13/13 A3001 RMK AO2 T01270127
Loading
Personal Weather Stations






























Interactive Weather Map New forecast layout! Learn more

10-Day Weather Forecast

Advertisements
Track Severe Weather on mobile